Time;durP1;ratioP1;P1;durP2;ratioP2;P2;SDS_P1;SDS_P2;PMS_P1;PMS_P2;Temp;Humidity;BMP_temperature;BMP_pressure;BME280_temperature;BME280_humidity;BME280_pressure;Samples;Min_cycle;Max_cycle;Signal;HPM_P1;HPM_P2
2023/03/17 00:01:06;;;;;;;13.13;7.20;;;1.80;99.90;;;;;;7592669;19;20439;-73
2023/03/17 00:03:40;;;;;;;15.25;7.72;;;1.80;99.90;;;;;;7605308;19;20491;-72
2023/03/17 00:06:20;;;;;;;10.93;6.45;;;1.80;99.90;;;;;;7598254;19;20015;-73
2023/03/17 00:08:52;;;;;;;12.02;6.82;;;1.80;99.90;;;;;;7595664;19;20034;-73
2023/03/17 00:11:26;;;;;;;12.85;7.03;;;1.70;99.90;;;;;;7604158;19;20097;-72
2023/03/17 00:13:58;;;;;;;13.00;7.22;;;1.70;99.90;;;;;;7592972;19;20893;-73
2023/03/17 00:16:35;;;;;;;16.77;8.27;;;1.70;99.90;;;;;;7590422;19;20002;-73
2023/03/17 00:19:15;;;;;;;15.50;8.02;;;1.70;99.90;;;;;;7583866;19;20019;-73
2023/03/17 00:21:49;;;;;;;15.77;8.18;;;1.70;99.90;;;;;;7592414;19;20022;-73
2023/03/17 00:24:21;;;;;;;12.75;7.82;;;1.70;99.90;;;;;;7591195;19;20026;-72
2023/03/17 00:26:53;;;;;;;15.02;7.45;;;1.60;99.90;;;;;;7590356;19;20018;-73
2023/03/17 00:29:25;;;;;;;16.50;8.55;;;1.60;99.90;;;;;;7601498;19;20057;-75
2023/03/17 00:31:57;;;;;;;14.65;7.40;;;1.70;99.90;;;;;;7598423;19;20029;-75
2023/03/17 00:34:30;;;;;;;13.73;7.30;;;1.60;99.90;;;;;;7598403;19;20022;-77
2023/03/17 00:37:03;;;;;;;15.55;7.70;;;1.60;99.90;;;;;;7597711;19;20491;-75
2023/03/17 00:39:35;;;;;;;13.68;7.65;;;1.60;99.90;;;;;;7598873;19;21202;-75
2023/03/17 00:42:08;;;;;;;17.70;8.57;;;1.60;99.90;;;;;;7605189;19;20006;-76
2023/03/17 00:44:43;;;;;;;15.75;8.13;;;1.70;99.90;;;;;;7577871;19;20022;-76
2023/03/17 00:47:16;;;;;;;12.73;7.93;;;1.70;99.90;;;;;;7620920;19;20051;-76
2023/03/17 00:49:48;;;;;;;17.17;8.68;;;1.70;99.90;;;;;;7603049;19;20014;-76
2023/03/17 00:52:20;;;;;;;14.68;8.70;;;1.80;99.90;;;;;;7613315;19;20011;-76
2023/03/17 00:54:53;;;;;;;15.70;8.45;;;1.80;99.90;;;;;;7614621;19;20041;-76
2023/03/17 00:57:25;;;;;;;16.65;7.78;;;1.80;99.90;;;;;;7595766;19;20015;-76
2023/03/17 00:59:57;;;;;;;15.52;8.02;;;1.90;99.90;;;;;;7610995;19;20047;-75
2023/03/17 01:02:33;;;;;;;;;;;1.90;99.90;;;;;;7602419;19;20023;-76
2023/03/17 01:05:06;;;;;;;15.52;7.75;;;1.90;99.90;;;;;;7597627;19;19922;-75
2023/03/17 01:07:39;;;;;;;18.83;8.40;;;1.90;99.90;;;;;;7595496;19;20018;-76
2023/03/17 01:10:17;;;;;;;14.43;7.90;;;1.90;99.90;;;;;;7600046;19;20043;-76
2023/03/17 01:12:51;;;;;;;14.93;7.82;;;1.90;99.90;;;;;;7603671;19;20394;-76
2023/03/17 01:15:27;;;;;;;12.82;7.43;;;1.80;99.90;;;;;;7610296;19;20019;-76
2023/03/17 01:18:01;;;;;;;13.48;7.95;;;1.70;99.90;;;;;;7602901;19;20010;-76
2023/03/17 01:20:34;;;;;;;13.45;8.35;;;1.70;99.90;;;;;;7609446;19;20040;-76
2023/03/17 01:23:06;;;;;;;14.63;7.77;;;1.60;99.90;;;;;;7605788;19;20014;-75
2023/03/17 01:25:40;;;;;;;15.23;7.97;;;1.50;99.90;;;;;;7605602;19;20741;-75
2023/03/17 01:28:14;;;;;;;14.18;8.13;;;1.40;99.90;;;;;;7589099;19;20026;-75
2023/03/17 01:30:48;;;;;;;16.38;8.48;;;1.40;99.90;;;;;;7593911;19;20691;-76
2023/03/17 01:33:21;;;;;;;16.15;8.38;;;1.40;99.90;;;;;;7583345;19;20018;-76
2023/03/17 01:35:54;;;;;;;16.97;7.97;;;1.40;99.90;;;;;;7597229;19;20385;-76
2023/03/17 01:38:26;;;;;;;12.38;7.78;;;1.30;99.90;;;;;;7600371;19;20018;-76
2023/03/17 01:41:00;;;;;;;13.98;7.75;;;1.40;99.90;;;;;;7600077;19;20014;-76
2023/03/17 01:43:32;;;;;;;16.77;8.20;;;1.40;99.90;;;;;;7591341;19;20023;-76
2023/03/17 01:46:23;;;;;;;14.32;8.10;;;1.30;99.90;;;;;;7598724;19;20015;-76
2023/03/17 01:49:05;;;;;;;14.85;8.57;;;1.30;99.90;;;;;;7594875;19;20669;-76
2023/03/17 01:51:37;;;;;;;14.07;7.97;;;1.30;99.90;;;;;;7595024;19;20644;-76
2023/03/17 01:54:16;;;;;;;13.87;8.23;;;1.30;99.90;;;;;;7589320;19;20019;-75
2023/03/17 01:56:51;;;;;;;19.08;8.98;;;1.30;99.90;;;;;;7594165;19;20303;-76
2023/03/17 01:59:27;;;;;;;15.02;8.27;;;1.30;99.90;;;;;;7595371;19;20018;-76
2023/03/17 02:02:06;;;;;;;13.93;7.43;;;1.30;99.90;;;;;;7580769;19;20022;-75
2023/03/17 02:04:39;;;;;;;14.52;8.55;;;1.30;99.90;;;;;;7583774;19;20029;-76
2023/03/17 02:07:12;;;;;;;13.45;8.13;;;1.20;99.90;;;;;;7597411;19;20011;-75
2023/03/17 02:09:46;;;;;;;14.32;7.78;;;1.20;99.90;;;;;;7592375;19;21094;-76
2023/03/17 02:12:21;;;;;;;15.00;8.43;;;1.20;99.90;;;;;;7589005;19;20015;-76
2023/03/17 02:14:54;;;;;;;16.27;8.68;;;1.00;99.90;;;;;;7590513;19;20072;-75
2023/03/17 02:17:27;;;;;;;13.60;8.65;;;1.00;99.90;;;;;;7591102;19;20022;-76
2023/03/17 02:20:15;;;;;;;16.17;8.48;;;0.90;99.90;;;;;;7588753;19;20126;-76
2023/03/17 02:22:51;;;;;;;12.52;8.20;;;0.80;99.90;;;;;;7572222;19;20293;-76
2023/03/17 02:25:24;;;;;;;13.68;7.90;;;0.80;99.90;;;;;;7601141;19;20015;-76
2023/03/17 02:28:00;;;;;;;;;;;0.80;99.90;;;;;;7576918;19;20010;-76
2023/03/17 02:30:34;;;;;;;16.25;8.70;;;0.80;99.90;;;;;;7574997;19;19923;-76
2023/03/17 02:33:06;;;;;;;12.90;7.03;;;0.80;99.90;;;;;;7584069;19;20661;-76
2023/03/17 02:35:39;;;;;;;13.18;7.90;;;0.90;99.90;;;;;;7607949;19;20014;-76
2023/03/17 02:38:12;;;;;;;13.85;8.20;;;0.90;99.90;;;;;;7594744;19;20022;-75
2023/03/17 02:40:47;;;;;;;18.23;8.50;;;1.00;99.90;;;;;;7595435;19;20015;-75
2023/03/17 02:43:20;;;;;;;14.80;8.50;;;1.00;99.90;;;;;;7582345;19;20006;-78
2023/03/17 02:45:52;;;;;;;13.75;8.48;;;1.00;99.90;;;;;;7584810;19;20035;-76
2023/03/17 02:48:25;;;;;;;15.80;8.20;;;0.90;99.90;;;;;;7587851;19;20613;-75
2023/03/17 02:50:57;;;;;;;18.45;8.82;;;0.90;99.90;;;;;;7591368;19;20020;-76
2023/03/17 02:53:32;;;;;;;14.65;8.75;;;0.80;99.90;;;;;;7591884;19;20550;-75
2023/03/17 02:56:05;;;;;;;15.20;8.52;;;0.70;99.90;;;;;;7593698;19;20090;-78
2023/03/17 02:58:37;;;;;;;13.30;8.43;;;0.80;99.90;;;;;;7581825;19;20061;-76
2023/03/17 03:01:09;;;;;;;12.80;8.02;;;0.80;99.90;;;;;;7587754;19;20011;-76
2023/03/17 03:03:41;;;;;;;11.88;7.50;;;0.80;99.90;;;;;;7571761;19;20015;-76
2023/03/17 03:06:14;;;;;;;13.63;8.43;;;0.80;99.90;;;;;;7595334;19;20661;-76
2023/03/17 03:08:46;;;;;;;12.57;7.95;;;0.90;99.90;;;;;;7578038;19;20910;-75
2023/03/17 03:11:18;;;;;;;14.00;7.90;;;0.90;99.90;;;;;;7590393;19;20014;-75
2023/03/17 03:13:51;;;;;;;15.43;8.25;;;0.90;99.90;;;;;;7575154;19;20014;-76
2023/03/17 03:16:23;;;;;;;15.10;8.90;;;0.90;99.90;;;;;;7576875;19;20538;-76
2023/03/17 03:18:55;;;;;;;15.85;8.27;;;1.00;99.90;;;;;;7592443;19;20065;-75
2023/03/17 03:21:27;;;;;;;16.80;8.55;;;0.90;99.90;;;;;;7575696;19;20022;-75
2023/03/17 03:23:59;;;;;;;13.15;7.55;;;1.00;99.90;;;;;;7586562;19;21901;-76
2023/03/17 03:26:32;;;;;;;17.67;8.35;;;0.90;99.90;;;;;;7588663;19;20018;-75
2023/03/17 03:29:04;;;;;;;15.32;8.18;;;0.90;99.90;;;;;;7587171;19;20278;-76
2023/03/17 03:31:36;;;;;;;16.02;8.07;;;0.90;99.90;;;;;;7598707;19;20028;-75
2023/03/17 03:34:09;;;;;;;16.33;8.70;;;0.90;99.90;;;;;;7598067;19;20742;-76
2023/03/17 03:36:41;;;;;;;15.85;8.63;;;0.90;99.90;;;;;;7593451;19;20014;-79
2023/03/17 03:39:13;;;;;;;13.90;8.13;;;0.90;99.90;;;;;;7590458;19;20045;-76
2023/03/17 03:41:46;;;;;;;9.98;6.93;;;0.90;99.90;;;;;;7588667;19;20044;-75
2023/03/17 03:44:18;;;;;;;12.38;7.45;;;0.90;99.90;;;;;;7579909;19;20026;-78
2023/03/17 03:46:50;;;;;;;12.75;7.50;;;0.90;99.90;;;;;;7601857;19;20086;-75
2023/03/17 03:49:25;;;;;;;13.05;7.68;;;1.00;99.90;;;;;;7600595;19;20668;-75
2023/03/17 03:51:57;;;;;;;12.60;7.18;;;1.00;99.90;;;;;;7599679;19;20019;-75
2023/03/17 03:54:29;;;;;;;11.30;7.28;;;1.00;99.90;;;;;;7591133;19;20025;-75
2023/03/17 03:57:03;;;;;;;11.75;6.90;;;1.10;99.90;;;;;;7580009;19;20047;-78
2023/03/17 03:59:35;;;;;;;11.88;7.45;;;1.10;99.90;;;;;;7562181;19;20024;-75
2023/03/17 04:02:08;;;;;;;17.58;8.02;;;1.00;99.90;;;;;;7586923;19;20030;-75
2023/03/17 04:04:40;;;;;;;10.73;6.97;;;1.10;99.90;;;;;;7572234;19;20010;-76
2023/03/17 04:07:13;;;;;;;14.55;8.07;;;1.20;99.90;;;;;;7540441;19;20101;-78
2023/03/17 04:09:48;;;;;;;13.50;8.02;;;1.10;99.90;;;;;;7553120;19;20011;-77
2023/03/17 04:12:20;;;;;;;16.25;8.25;;;1.10;99.90;;;;;;7539447;19;21155;-75
2023/03/17 04:14:52;;;;;;;13.15;7.60;;;1.10;99.90;;;;;;7575859;19;21768;-76
2023/03/17 04:17:24;;;;;;;12.43;7.68;;;1.10;99.90;;;;;;7587069;19;20022;-76
2023/03/17 04:19:57;;;;;;;12.85;7.70;;;1.20;99.90;;;;;;7548704;19;20020;-76
2023/03/17 04:22:29;;;;;;;14.43;8.23;;;1.30;99.90;;;;;;7584959;19;20025;-75
2023/03/17 04:25:01;;;;;;;12.82;8.05;;;1.30;99.90;;;;;;7575194;19;20097;-76
2023/03/17 04:27:34;;;;;;;12.52;7.78;;;1.30;99.90;;;;;;7566840;19;20040;-76
2023/03/17 04:30:09;;;;;;;19.10;8.90;;;1.30;99.90;;;;;;7560186;19;20120;-76
2023/03/17 04:32:42;;;;;;;14.32;8.93;;;1.30;99.90;;;;;;7571799;19;20018;-76
2023/03/17 04:35:18;;;;;;;15.13;7.82;;;1.30;99.90;;;;;;7580974;19;20014;-78
2023/03/17 04:37:50;;;;;;;16.95;7.97;;;1.40;99.90;;;;;;7585536;19;20010;-78
2023/03/17 04:40:22;;;;;;;13.20;8.50;;;1.40;99.90;;;;;;7567857;19;20018;-77
2023/03/17 04:42:54;;;;;;;11.90;7.97;;;1.40;99.90;;;;;;7568246;19;20695;-77
2023/03/17 04:45:27;;;;;;;11.25;7.07;;;1.40;99.90;;;;;;7568001;19;20049;-77
2023/03/17 04:47:59;;;;;;;13.45;7.63;;;1.50;99.90;;;;;;7568527;19;20036;-75
2023/03/17 04:50:31;;;;;;;13.95;7.45;;;1.50;99.90;;;;;;7593052;19;21356;-76
2023/03/17 04:53:05;;;;;;;12.48;7.95;;;1.40;99.90;;;;;;7535705;19;20018;-76
2023/03/17 04:55:37;;;;;;;13.13;7.85;;;1.50;99.90;;;;;;7563902;19;20684;-75
2023/03/17 04:58:09;;;;;;;15.18;9.20;;;1.50;99.90;;;;;;7548821;19;20018;-75
2023/03/17 05:00:52;;;;;;;15.13;8.18;;;1.50;99.90;;;;;;7564634;19;20126;-76
2023/03/17 05:03:24;;;;;;;16.50;8.20;;;1.50;99.90;;;;;;7572824;19;20466;-75
2023/03/17 05:05:59;;;;;;;14.63;7.93;;;1.40;99.90;;;;;;7578813;19;20021;-75
2023/03/17 05:08:32;;;;;;;12.80;8.25;;;1.40;99.90;;;;;;7554870;19;20656;-76
2023/03/17 05:11:04;;;;;;;15.05;8.00;;;1.40;99.90;;;;;;7587832;19;20018;-75
2023/03/17 05:13:36;;;;;;;13.45;7.95;;;1.40;99.90;;;;;;7587202;19;20622;-76
2023/03/17 05:16:08;;;;;;;16.10;8.23;;;1.40;99.90;;;;;;7585082;19;20018;-75
2023/03/17 05:18:42;;;;;;;16.85;8.18;;;1.40;99.90;;;;;;7595570;19;20018;-75
2023/03/17 05:21:14;;;;;;;;;;;1.40;99.90;;;;;;7593186;19;20034;-76
2023/03/17 05:23:46;;;;;;;14.50;7.60;;;1.30;99.90;;;;;;7582672;19;19919;-76
2023/03/17 05:26:18;;;;;;;16.75;8.15;;;1.30;99.90;;;;;;7579943;19;20125;-75
2023/03/17 05:28:51;;;;;;;15.82;8.18;;;1.30;99.90;;;;;;7576012;19;20017;-75
2023/03/17 05:31:23;;;;;;;14.15;7.90;;;1.30;99.90;;;;;;7592656;19;20041;-75
2023/03/17 05:33:55;;;;;;;13.68;7.90;;;1.30;99.90;;;;;;7585444;19;20030;-75
2023/03/17 05:36:28;;;;;;;15.95;8.98;;;1.30;99.90;;;;;;7584491;19;20018;-74
2023/03/17 05:39:00;;;;;;;17.52;8.07;;;1.30;99.90;;;;;;7584318;19;20122;-75
2023/03/17 05:41:32;;;;;;;13.85;8.15;;;1.30;99.90;;;;;;7591615;19;20512;-75
2023/03/17 05:44:04;;;;;;;11.10;7.35;;;1.40;99.90;;;;;;7588517;19;20022;-76
2023/03/17 05:46:36;;;;;;;11.63;7.60;;;1.40;99.90;;;;;;7572214;19;20022;-76
2023/03/17 05:49:08;;;;;;;13.18;7.90;;;1.30;99.90;;;;;;7570260;19;20043;-75
2023/03/17 05:51:41;;;;;;;12.23;8.02;;;1.40;99.90;;;;;;7584286;19;20015;-76
2023/03/17 05:54:13;;;;;;;12.48;7.85;;;1.40;99.90;;;;;;7568093;19;20057;-76
2023/03/17 05:56:45;;;;;;;14.40;8.60;;;1.40;99.90;;;;;;7585882;19;20017;-76
2023/03/17 05:59:17;;;;;;;15.57;7.97;;;1.40;99.90;;;;;;7580881;19;20018;-75
2023/03/17 06:01:50;;;;;;;17.40;8.30;;;1.40;99.90;;;;;;7557456;19;20097;-75
2023/03/17 06:04:23;;;;;;;14.48;7.63;;;1.40;99.90;;;;;;7542663;19;20495;-76
2023/03/17 06:06:56;;;;;;;14.32;7.43;;;1.40;99.90;;;;;;7548082;19;20022;-77
2023/03/17 06:09:28;;;;;;;13.13;7.93;;;1.50;99.90;;;;;;7522590;19;20435;-79
2023/03/17 06:12:01;;;;;;;15.25;7.97;;;1.60;99.90;;;;;;7550043;19;20724;-77
2023/03/17 06:14:33;;;;;;;17.27;8.27;;;1.60;99.90;;;;;;7586113;19;20016;-81
2023/03/17 06:17:06;;;;;;;16.25;7.78;;;1.70;99.90;;;;;;7568790;19;20010;-82
2023/03/17 06:19:38;;;;;;;16.63;8.57;;;1.80;99.90;;;;;;7591541;19;20061;-82
2023/03/17 06:22:10;;;;;;;11.93;8.00;;;1.90;99.90;;;;;;7584382;19;20049;-79
2023/03/17 06:24:42;;;;;;;14.85;7.85;;;2.00;99.90;;;;;;7576895;19;20014;-81
2023/03/17 06:27:15;;;;;;;17.73;8.20;;;2.20;99.90;;;;;;7569652;19;20807;-78
2023/03/17 06:29:47;;;;;;;12.73;7.38;;;2.20;99.90;;;;;;7589308;19;20704;-82
2023/03/17 06:32:19;;;;;;;14.18;8.10;;;2.30;99.90;;;;;;7605140;19;20716;-79
2023/03/17 06:34:52;;;;;;;10.80;7.07;;;2.40;99.90;;;;;;7601589;19;20609;-83
2023/03/17 06:37:24;;;;;;;12.18;6.47;;;2.50;99.90;;;;;;7597618;19;20787;-80
2023/03/17 06:39:57;;;;;;;10.52;6.70;;;2.50;99.90;;;;;;7605466;19;20037;-82
2023/03/17 06:42:29;;;;;;;10.80;6.15;;;2.60;99.90;;;;;;7608742;19;20014;-80
2023/03/17 06:45:02;;;;;;;11.55;6.55;;;2.60;99.90;;;;;;7602587;19;20024;-82
2023/03/17 06:47:36;;;;;;;12.07;6.97;;;2.60;99.90;;;;;;7601042;19;20021;-81
2023/03/17 06:50:08;;;;;;;;;;;2.60;99.90;;;;;;7599415;19;20015;-80
2023/03/17 06:52:41;;;;;;;10.05;6.55;;;2.70;99.90;;;;;;7598678;19;19957;-80
2023/03/17 06:55:13;;;;;;;13.70;6.85;;;2.70;99.90;;;;;;7598919;19;20027;-81
2023/03/17 06:57:46;;;;;;;13.90;6.22;;;2.80;99.90;;;;;;7608273;19;20026;-81
2023/03/17 07:00:21;;;;;;;12.27;7.07;;;2.80;99.90;;;;;;7592312;19;20057;-77
2023/03/17 07:02:53;;;;;;;13.77;6.82;;;2.90;99.90;;;;;;7602861;19;20018;-77
2023/03/17 07:05:26;;;;;;;13.63;6.50;;;2.90;99.90;;;;;;7602037;19;20014;-77
2023/03/17 07:07:58;;;;;;;12.88;6.20;;;3.00;99.90;;;;;;7598781;19;20017;-77
2023/03/17 07:10:31;;;;;;;10.25;6.10;;;3.20;99.90;;;;;;7595273;19;20021;-77
2023/03/17 07:13:06;;;;;;;11.90;5.70;;;3.30;99.90;;;;;;7604467;19;20050;-77
2023/03/17 07:15:38;;;;;;;9.43;5.55;;;3.40;99.90;;;;;;7604584;19;20094;-75
2023/03/17 07:18:11;;;;;;;13.35;5.88;;;3.60;99.90;;;;;;7594188;19;20057;-77
2023/03/17 07:20:43;;;;;;;9.77;5.35;;;3.80;99.90;;;;;;7601485;19;20014;-76
2023/03/17 07:23:21;;;;;;;14.23;5.45;;;4.00;99.90;;;;;;7588325;19;20594;-78
2023/03/17 07:25:54;;;;;;;10.38;5.22;;;4.00;99.90;;;;;;7602594;19;20338;-79
2023/03/17 07:28:26;;;;;;;9.90;5.05;;;4.20;99.90;;;;;;7594590;19;20015;-78
2023/03/17 07:30:59;;;;;;;11.40;4.60;;;4.30;99.90;;;;;;7603217;19;20638;-76
2023/03/17 07:33:32;;;;;;;10.50;4.18;;;4.40;99.90;;;;;;7603081;19;21140;-75
2023/03/17 07:36:06;;;;;;;10.10;5.53;;;4.50;99.90;;;;;;7600459;19;20100;-75
2023/03/17 07:38:38;;;;;;;10.45;4.45;;;4.60;99.90;;;;;;7584176;19;20013;-75
2023/03/17 07:41:10;;;;;;;8.95;4.28;;;4.70;99.90;;;;;;7582646;19;20090;-76
2023/03/17 07:43:42;;;;;;;10.20;4.55;;;4.90;99.90;;;;;;7597459;19;20696;-75
2023/03/17 07:46:14;;;;;;;11.27;4.80;;;5.20;99.90;;;;;;7597186;19;20022;-75
2023/03/17 07:48:47;;;;;;;6.80;4.10;;;5.40;99.90;;;;;;7599112;19;20018;-76
2023/03/17 07:51:21;;;;;;;6.32;3.75;;;5.70;99.90;;;;;;7598211;19;20053;-76
2023/03/17 07:54:02;;;;;;;12.02;4.63;;;5.90;99.90;;;;;;7599864;19;20022;-76
2023/03/17 07:56:35;;;;;;;7.88;4.38;;;6.20;98.10;;;;;;7598499;19;20029;-76
2023/03/17 07:59:07;;;;;;;9.82;4.90;;;6.40;95.60;;;;;;7604571;19;20014;-76
2023/03/17 08:01:39;;;;;;;9.00;4.40;;;6.50;94.30;;;;;;7599108;19;20014;-75
2023/03/17 08:04:12;;;;;;;8.65;3.78;;;6.70;94.00;;;;;;7603263;19;20039;-77
2023/03/17 08:06:45;;;;;;;6.22;3.90;;;6.80;93.00;;;;;;7601662;19;20025;-75
2023/03/17 08:09:17;;;;;;;7.47;4.18;;;6.90;92.00;;;;;;7595487;19;20018;-76
2023/03/17 08:11:49;;;;;;;10.20;4.13;;;7.10;91.40;;;;;;7591610;19;20537;-76
2023/03/17 08:14:22;;;;;;;6.40;3.88;;;7.20;91.30;;;;;;7595609;19;20053;-77
2023/03/17 08:16:54;;;;;;;7.88;4.38;;;7.30;90.70;;;;;;7605949;19;20026;-76
2023/03/17 08:19:26;;;;;;;6.90;4.10;;;7.30;88.40;;;;;;7591453;19;20010;-76
2023/03/17 08:22:00;;;;;;;7.03;3.80;;;7.40;89.50;;;;;;7599511;19;20010;-75
2023/03/17 08:24:32;;;;;;;7.72;4.03;;;7.50;89.10;;;;;;7591313;19;20015;-76
2023/03/17 08:27:04;;;;;;;6.28;4.18;;;7.60;88.00;;;;;;7599318;19;20017;-77
2023/03/17 08:29:36;;;;;;;6.63;4.00;;;7.60;87.20;;;;;;7591002;19;20034;-77
2023/03/17 08:32:09;;;;;;;8.25;4.00;;;7.70;87.00;;;;;;7596736;19;20908;-77
2023/03/17 08:34:43;;;;;;;8.35;4.65;;;7.80;87.20;;;;;;7596525;19;20535;-75
2023/03/17 08:37:15;;;;;;;9.82;3.88;;;7.90;87.90;;;;;;7588829;19;20764;-76
2023/03/17 08:39:48;;;;;;;5.90;3.47;;;7.90;88.30;;;;;;7600449;19;20014;-74
2023/03/17 08:42:20;;;;;;;6.18;4.15;;;8.00;88.30;;;;;;7600904;19;20022;-76
2023/03/17 08:44:52;;;;;;;6.30;3.83;;;8.10;88.40;;;;;;7596487;19;20006;-79
2023/03/17 08:47:26;;;;;;;6.00;3.35;;;8.20;87.50;;;;;;7592390;19;20030;-76
2023/03/17 08:49:59;;;;;;;10.90;4.68;;;8.30;87.10;;;;;;7595224;19;20015;-77
2023/03/17 08:52:31;;;;;;;6.88;4.70;;;8.40;87.40;;;;;;7588875;19;20653;-75
2023/03/17 08:55:04;;;;;;;10.02;5.60;;;8.40;86.90;;;;;;7606867;19;20018;-76
2023/03/17 08:57:36;;;;;;;6.95;4.15;;;8.40;84.90;;;;;;7590811;19;20010;-76
2023/03/17 09:00:10;;;;;;;16.15;5.05;;;8.50;83.50;;;;;;7599171;19;20025;-77
2023/03/17 09:02:43;;;;;;;9.52;4.72;;;8.50;84.60;;;;;;7592016;19;20669;-76
2023/03/17 09:05:16;;;;;;;15.63;7.93;;;8.60;84.30;;;;;;7595461;19;20022;-76
2023/03/17 09:07:49;;;;;;;8.13;4.40;;;8.70;83.80;;;;;;7584286;19;20018;-76
2023/03/17 09:10:22;;;;;;;9.70;4.60;;;8.80;83.60;;;;;;7599891;19;19998;-76
2023/03/17 09:13:01;;;;;;;6.88;4.07;;;8.90;81.80;;;;;;7595207;19;20018;-77
2023/03/17 09:15:34;;;;;;;5.63;3.75;;;9.00;82.10;;;;;;7592877;19;20546;-79
2023/03/17 09:18:06;;;;;;;17.67;8.45;;;9.10;82.10;;;;;;7595959;19;20017;-76
2023/03/17 09:20:39;;;;;;;15.83;9.43;;;9.30;81.10;;;;;;7595497;19;20352;-77
2023/03/17 09:23:12;;;;;;;10.43;4.47;;;9.50;81.20;;;;;;7593291;19;20007;-77
2023/03/17 09:25:45;;;;;;;5.38;3.20;;;9.70;80.40;;;;;;7583171;19;21004;-78
2023/03/17 09:28:17;;;;;;;9.00;7.00;;;10.10;77.20;;;;;;7581711;19;20022;-79
2023/03/17 09:30:50;;;;;;;8.05;3.70;;;10.00;77.60;;;;;;7610588;19;20515;-80
2023/03/17 09:33:22;;;;;;;6.75;2.97;;;9.90;76.90;;;;;;7603736;19;20019;-77
2023/03/17 09:35:57;;;;;;;6.65;3.13;;;10.00;76.20;;;;;;7616198;19;20735;-79
2023/03/17 09:38:31;;;;;;;7.63;3.33;;;10.10;74.80;;;;;;7602282;19;20014;-75
2023/03/17 09:41:03;;;;;;;3.77;2.40;;;10.30;74.60;;;;;;7611036;19;20016;-77
2023/03/17 09:44:00;;;;;;;5.22;2.60;;;10.40;72.90;;;;;;7608020;19;20302;-82
2023/03/17 09:46:36;;;;;;;5.72;2.35;;;10.50;72.60;;;;;;7610230;19;20518;-80
2023/03/17 09:49:14;;;;;;;3.20;2.53;;;10.60;72.70;;;;;;7607648;19;20026;-79
2023/03/17 09:51:48;;;;;;;4.82;2.50;;;10.70;71.20;;;;;;7608520;19;20533;-80
2023/03/17 09:54:25;;;;;;;;;;;10.90;70.40;;;;;;7605841;19;20113;-84
2023/03/17 09:57:05;;;;;;;6.45;2.30;;;11.10;70.70;;;;;;7604268;19;19933;-80
2023/03/17 09:59:45;;;;;;;4.65;2.20;;;11.20;70.00;;;;;;7598523;19;20089;-80
2023/03/17 10:02:25;;;;;;;6.38;2.53;;;11.30;69.60;;;;;;7605818;19;20049;-80
2023/03/17 10:05:05;;;;;;;6.15;3.92;;;11.50;69.30;;;;;;7605030;19;20015;-81
2023/03/17 10:07:52;;;;;;;3.83;1.83;;;11.70;68.20;;;;;;7594480;19;20022;-79
2023/03/17 10:10:46;;;;;;;8.93;3.85;;;11.90;68.60;;;;;;7602611;19;20015;-81
2023/03/17 10:13:47;;;;;;;3.60;2.22;;;12.00;67.20;;;;;;7611842;19;20097;-82
2023/03/17 10:16:29;;;;;;;4.90;1.92;;;12.20;66.50;;;;;;7591790;19;20010;-79
2023/03/17 10:19:09;;;;;;;4.65;2.03;;;12.40;63.30;;;;;;7597231;19;20015;-81
2023/03/17 10:21:57;;;;;;;4.00;2.08;;;12.50;61.40;;;;;;7593956;19;20090;-82
2023/03/17 10:24:33;;;;;;;3.28;1.92;;;12.60;62.20;;;;;;7600641;19;20628;-81
2023/03/17 10:27:06;;;;;;;5.10;1.75;;;12.70;61.30;;;;;;7602776;19;20018;-81
2023/03/17 10:29:39;;;;;;;;;;;12.80;62.50;;;;;;7608948;19;20019;-81
2023/03/17 10:32:13;;;;;;;8.40;2.45;;;12.90;62.20;;;;;;7603819;19;19919;-84
2023/03/17 10:34:47;;;;;;;12.73;6.40;;;13.00;62.30;;;;;;7602726;19;20777;-81
2023/03/17 10:37:23;;;;;;;4.90;2.10;;;13.10;61.10;;;;;;7603506;19;20014;-82
2023/03/17 10:39:56;;;;;;;4.95;3.03;;;13.20;59.80;;;;;;7613914;19;20014;-80
2023/03/17 10:42:31;;;;;;;2.70;1.73;;;13.30;60.60;;;;;;7606814;19;20014;-80
2023/03/17 10:45:24;;;;;;;6.30;2.17;;;13.40;60.00;;;;;;7597722;19;20061;-81
2023/03/17 10:47:58;;;;;;;6.55;1.60;;;13.40;60.10;;;;;;7594213;19;20089;-84
2023/03/17 10:50:31;;;;;;;;;;;13.50;60.00;;;;;;7610981;19;21065;-80
2023/03/17 10:53:27;;;;;;;4.05;2.90;;;13.70;60.30;;;;;;7613890;19;19922;-80
2023/03/17 10:56:09;;;;;;;8.00;2.50;;;13.80;60.30;;;;;;7625785;19;20023;-80
2023/03/17 10:58:47;;;;;;;4.78;2.22;;;14.00;58.50;;;;;;7626926;19;20014;-79
2023/03/17 11:01:42;;;;;;;37.22;21.85;;;14.00;58.10;;;;;;7612448;19;20487;-80
2023/03/17 11:04:20;;;;;;;35.03;21.17;;;14.10;58.90;;;;;;7607950;19;20019;-81
2023/03/17 11:06:56;;;;;;;5.40;2.53;;;14.20;60.80;;;;;;7616291;19;20430;-82
2023/03/17 11:09:33;;;;;;;9.82;6.00;;;14.30;60.90;;;;;;7614951;19;20026;-80
2023/03/17 11:12:17;;;;;;;12.15;7.68;;;14.40;59.60;;;;;;7606193;19;20018;-79
2023/03/17 11:14:49;;;;;;;9.18;3.47;;;14.40;59.70;;;;;;7612724;19;20882;-82
2023/03/17 11:18:22;;;;;;;28.00;17.38;;;14.40;59.90;;;;;;7619293;19;20022;-81
2023/03/17 11:21:14;;;;;;;9.18;3.85;;;14.60;60.60;;;;;;7613232;19;20029;-82
2023/03/17 11:23:57;;;;;;;8.82;2.55;;;14.80;59.60;;;;;;7613346;19;20514;-80
2023/03/17 11:26:47;;;;;;;11.98;6.05;;;15.00;58.80;;;;;;7625237;19;20014;-81
2023/03/17 11:29:28;;;;;;;12.88;6.82;;;15.00;57.30;;;;;;7624638;19;20025;-79
2023/03/17 11:32:19;;;;;;;7.50;3.50;;;15.20;57.80;;;;;;7636977;19;20123;-81
2023/03/17 11:34:55;;;;;;;12.13;4.70;;;15.50;57.90;;;;;;7627742;19;20404;-80
2023/03/17 11:37:36;;;;;;;3.90;2.38;;;15.80;57.10;;;;;;7643624;19;20015;-79
2023/03/17 11:40:20;;;;;;;3.58;2.10;;;16.00;55.90;;;;;;7627903;19;20018;-79
2023/03/17 11:43:07;;;;;;;14.05;6.95;;;16.40;55.50;;;;;;7628656;19;20479;-81
2023/03/17 11:45:51;;;;;;;21.95;10.75;;;16.70;55.10;;;;;;7623209;19;20026;-77
2023/03/17 11:48:26;;;;;;;38.55;20.20;;;17.00;55.00;;;;;;7615907;19;20380;-78
2023/03/17 11:51:17;;;;;;;10.73;5.55;;;17.40;54.20;;;;;;7622461;19;20027;-78
2023/03/17 11:53:55;;;;;;;6.88;5.43;;;17.60;52.60;;;;;;7616161;19;20038;-78
2023/03/17 11:56:29;;;;;;;4.20;1.90;;;17.60;53.10;;;;;;7616164;19;20018;-80
2023/03/17 11:59:10;;;;;;;5.68;2.28;;;17.50;51.80;;;;;;7619866;19;20026;-80
2023/03/17 12:02:10;;;;;;;5.40;1.98;;;17.50;52.00;;;;;;7619447;19;20019;-81
2023/03/17 12:05:09;;;;;;;3.10;1.73;;;17.70;52.20;;;;;;7614938;19;20057;-80
2023/03/17 12:07:52;;;;;;;5.53;2.03;;;18.00;51.30;;;;;;7613611;19;20026;-81
2023/03/17 12:10:41;;;;;;;7.80;2.33;;;18.20;51.00;;;;;;7613700;19;20305;-82
2023/03/17 12:13:58;;;;;;;3.70;2.00;;;18.30;51.00;;;;;;7610470;19;20017;-81
2023/03/17 12:16:32;;;;;;;4.90;2.20;;;18.70;51.60;;;;;;7599558;19;20077;-82
2023/03/17 12:19:18;;;;;;;6.72;2.10;;;19.10;49.30;;;;;;7609017;19;20010;-79
2023/03/17 12:22:22;;;;;;;3.28;2.17;;;19.30;48.70;;;;;;7604781;19;20018;-80
2023/03/17 12:25:19;;;;;;;3.88;2.47;;;19.60;48.70;;;;;;7606551;19;20018;-82
2023/03/17 12:28:00;;;;;;;3.90;2.10;;;20.30;49.10;;;;;;7594277;19;20018;-79
2023/03/17 12:30:44;;;;;;;5.80;2.05;;;20.70;47.50;;;;;;7591323;19;20014;-82
2023/03/17 12:33:17;;;;;;;;;;;20.90;47.10;;;;;;7598478;19;20022;-82
2023/03/17 12:35:49;;;;;;;4.55;2.10;;;21.00;46.20;;;;;;7603403;19;19929;-81
2023/03/17 12:38:34;;;;;;;10.27;2.55;;;21.10;46.80;;;;;;7604342;19;20015;-81
2023/03/17 12:41:45;;;;;;;7.32;2.10;;;21.10;46.40;;;;;;7605916;19;20021;-80
2023/03/17 12:44:32;;;;;;;7.03;2.40;;;20.90;46.20;;;;;;7604238;19;20013;-81
2023/03/17 12:47:04;;;;;;;2.53;2.00;;;21.10;46.80;;;;;;7597795;19;20082;-80
2023/03/17 12:49:51;;;;;;;3.38;2.05;;;21.30;47.00;;;;;;7598498;19;20017;-79
2023/03/17 12:52:36;;;;;;;4.93;2.55;;;21.40;46.00;;;;;;7597123;19;20014;-80
2023/03/17 12:55:13;;;;;;;5.50;2.22;;;21.30;45.00;;;;;;7601925;19;20018;-80
2023/03/17 12:57:56;;;;;;;3.35;2.63;;;21.20;45.30;;;;;;7600513;19;20020;-79
2023/03/17 13:00:32;;;;;;;4.53;2.78;;;21.40;45.30;;;;;;7598118;19;20014;-80
2023/03/17 13:03:21;;;;;;;5.53;2.58;;;21.50;45.10;;;;;;7604922;19;20014;-80
2023/03/17 13:05:59;;;;;;;4.40;1.83;;;21.70;45.10;;;;;;7609486;19;20074;-81
2023/03/17 13:08:40;;;;;;;2.85;2.13;;;21.40;44.30;;;;;;7609111;19;20088;-79
2023/03/17 13:11:45;;;;;;;5.45;2.47;;;21.20;45.20;;;;;;7598244;19;20010;-81
2023/03/17 13:14:42;;;;;;;3.40;2.08;;;20.90;44.80;;;;;;7601250;19;20443;-80
2023/03/17 13:17:20;;;;;;;3.22;2.30;;;21.10;44.60;;;;;;7589829;19;20763;-80
2023/03/17 13:19:55;;;;;;;5.03;2.80;;;21.10;44.60;;;;;;7600015;19;21164;-80
2023/03/17 13:22:37;;;;;;;5.35;2.78;;;20.80;44.90;;;;;;7602066;19;20065;-81
2023/03/17 13:25:35;;;;;;;4.35;2.50;;;20.60;45.80;;;;;;7601519;19;20190;-80
2023/03/17 13:28:12;;;;;;;6.70;3.13;;;20.50;45.90;;;;;;7603364;19;21650;-80
2023/03/17 13:31:09;;;;;;;8.85;3.20;;;20.60;46.00;;;;;;7594070;19;20022;-80
2023/03/17 13:33:50;;;;;;;4.85;3.05;;;20.80;45.50;;;;;;7596067;19;20011;-81
2023/03/17 13:37:04;;;;;;;4.63;2.03;;;20.70;45.10;;;;;;7594616;19;20017;-81